This is the latest recevied weather packets stored in our database for station/object VE6KEE-13. If no packets are shown the sender has not sent any weather packets the latest 10 day(s).
| Time | Temp. | Humidity | Pressure | Rain* | Wind** | Luminosity | Snow |
|---|---|---|---|---|---|---|---|
| 1777479209 | 16.67° C | 24% | 1024.2 hPa | 0 mm | - | - | - |
| 1777478313 | 16.11° C | 26% | 1024.4 hPa | 0 mm | - | - | - |
| 1777477407 | 14.44° C | 29% | 1024.4 hPa | 0 mm | - | - | - |
| 1777476507 | 13.33° C | 32% | 1024.5 hPa | 0 mm | - | - | - |
| 1777475606 | 11.67° C | 34% | 1024.6 hPa | 0 mm | - | - | - |
| 1777474705 | 10° C | 37% | 1024.6 hPa | 0 mm | - | - | - |
| 1777473805 | 8.33° C | 41% | 1024.7 hPa | 0 mm | - | - | - |
| 1777472911 | 6.11° C | 45% | 1024.7 hPa | 0 mm | - | - | - |
| 1777472003 | 3.89° C | 47% | 1024.9 hPa | 0 mm | - | - | - |
| 1777471102 | 2.22° C | 51% | 1024.7 hPa | 0 mm | - | - | - |
| 1777470201 | 0.56° C | 52% | 1024.9 hPa | 0 mm | - | - | - |
| 1777469301 | 0° C | 53% | 1024.9 hPa | 0 mm | - | - | - |
| 1777468400 | -0.56° C | 52% | 1024.8 hPa | 0 mm | - | - | - |
| 1777467505 | -0.56° C | 52% | 1024.7 hPa | 0 mm | - | - | - |
| 1777466598 | -0.56° C | 52% | 1024.6 hPa | 0 mm | - | - | - |
| 1777465698 | -0.56° C | 52% | 1024.6 hPa | 0 mm | - | - | - |
| 1777464797 | -0.56° C | 51% | 1024.6 hPa | 0 mm | - | - | - |
| 1777463896 | -0.56° C | 51% | 1024.6 hPa | 0 mm | - | - | - |
| 1777462996 | -0.56° C | 51% | 1024.5 hPa | 0 mm | - | - | - |
| 1777462100 | -0.56° C | 50% | 1024.2 hPa | 0 mm | - | - | - |
| 1777461194 | 0° C | 50% | 1024.1 hPa | 0 mm | - | - | - |
| 1777460293 | 0° C | 50% | 1024.1 hPa | 0 mm | - | - | - |
| 1777459393 | 0° C | 50% | 1023.9 hPa | 0 mm | - | - | - |
| 1777458492 | 0° C | 49% | 1023.7 hPa | 0 mm | - | - | - |
| 1777457591 | 0.56° C | 49% | 1023.6 hPa | 0 mm | - | - | - |
* Rain since midnight (hover to see other rain measurements)
** Current wind speed in m/s (hover to see current wind gust speed)